sensor_id;sensor_type;location;lat;lon;timestamp;P1;durP1;ratioP1;P2;durP2;ratioP2
30934;SDS011;51033;42.648;23.292;2022-11-06T00:01:30;21.35;;;12.40;;
30934;SDS011;51033;42.648;23.292;2022-11-06T00:03:56;23.20;;;12.55;;
30934;SDS011;51033;42.648;23.292;2022-11-06T00:06:21;26.75;;;13.90;;
30934;SDS011;51033;42.648;23.292;2022-11-06T00:09:06;20.90;;;12.00;;
30934;SDS011;51033;42.648;23.292;2022-11-06T00:11:34;22.27;;;12.88;;
30934;SDS011;51033;42.648;23.292;2022-11-06T00:14:00;24.92;;;13.23;;
30934;SDS011;51033;42.648;23.292;2022-11-06T00:16:26;34.58;;;16.15;;
30934;SDS011;51033;42.648;23.292;2022-11-06T00:18:52;20.98;;;12.73;;
30934;SDS011;51033;42.648;23.292;2022-11-06T00:21:18;19.42;;;12.90;;
30934;SDS011;51033;42.648;23.292;2022-11-06T00:23:46;21.33;;;13.13;;
30934;SDS011;51033;42.648;23.292;2022-11-06T00:26:13;25.05;;;12.38;;
30934;SDS011;51033;42.648;23.292;2022-11-06T00:28:40;17.80;;;11.57;;
30934;SDS011;51033;42.648;23.292;2022-11-06T00:31:07;23.90;;;14.05;;
30934;SDS011;51033;42.648;23.292;2022-11-06T00:33:35;21.20;;;13.35;;
30934;SDS011;51033;42.648;23.292;2022-11-06T00:36:05;22.05;;;13.35;;
30934;SDS011;51033;42.648;23.292;2022-11-06T00:38:32;24.98;;;12.43;;
30934;SDS011;51033;42.648;23.292;2022-11-06T00:41:02;20.17;;;12.48;;
30934;SDS011;51033;42.648;23.292;2022-11-06T00:43:32;20.00;;;12.05;;
30934;SDS011;51033;42.648;23.292;2022-11-06T00:46:08;17.77;;;11.75;;
30934;SDS011;51033;42.648;23.292;2022-11-06T00:48:36;20.95;;;12.60;;
30934;SDS011;51033;42.648;23.292;2022-11-06T00:51:02;22.73;;;13.95;;
30934;SDS011;51033;42.648;23.292;2022-11-06T00:53:28;27.40;;;13.07;;
30934;SDS011;51033;42.648;23.292;2022-11-06T00:55:54;22.40;;;12.23;;
30934;SDS011;51033;42.648;23.292;2022-11-06T00:58:19;21.50;;;12.38;;
30934;SDS011;51033;42.648;23.292;2022-11-06T01:00:45;20.90;;;12.65;;
30934;SDS011;51033;42.648;23.292;2022-11-06T01:03:10;21.02;;;13.48;;
30934;SDS011;51033;42.648;23.292;2022-11-06T01:05:35;23.40;;;12.10;;
30934;SDS011;51033;42.648;23.292;2022-11-06T01:08:01;21.30;;;12.07;;
30934;SDS011;51033;42.648;23.292;2022-11-06T01:10:26;21.25;;;13.88;;
30934;SDS011;51033;42.648;23.292;2022-11-06T01:12:51;20.10;;;12.77;;
30934;SDS011;51033;42.648;23.292;2022-11-06T01:15:17;20.92;;;11.65;;
30934;SDS011;51033;42.648;23.292;2022-11-06T01:17:42;23.80;;;13.00;;
30934;SDS011;51033;42.648;23.292;2022-11-06T01:20:08;22.80;;;13.15;;
30934;SDS011;51033;42.648;23.292;2022-11-06T01:22:33;23.05;;;12.65;;
30934;SDS011;51033;42.648;23.292;2022-11-06T01:24:59;23.55;;;12.70;;
30934;SDS011;51033;42.648;23.292;2022-11-06T01:27:24;23.38;;;12.93;;
30934;SDS011;51033;42.648;23.292;2022-11-06T01:29:49;19.80;;;12.00;;
30934;SDS011;51033;42.648;23.292;2022-11-06T01:32:15;27.15;;;13.10;;
30934;SDS011;51033;42.648;23.292;2022-11-06T01:34:40;20.38;;;11.52;;
30934;SDS011;51033;42.648;23.292;2022-11-06T01:37:06;23.38;;;13.60;;
30934;SDS011;51033;42.648;23.292;2022-11-06T01:39:31;19.30;;;13.23;;
30934;SDS011;51033;42.648;23.292;2022-11-06T01:41:57;22.77;;;13.27;;
30934;SDS011;51033;42.648;23.292;2022-11-06T01:46:57;27.27;;;14.82;;
30934;SDS011;51033;42.648;23.292;2022-11-06T01:49:23;23.38;;;15.40;;
30934;SDS011;51033;42.648;23.292;2022-11-06T01:51:54;27.70;;;15.02;;
30934;SDS011;51033;42.648;23.292;2022-11-06T01:54:23;24.48;;;14.90;;
30934;SDS011;51033;42.648;23.292;2022-11-06T01:56:52;26.50;;;14.70;;
30934;SDS011;51033;42.648;23.292;2022-11-06T01:59:21;21.65;;;13.93;;
30934;SDS011;51033;42.648;23.292;2022-11-06T02:01:51;23.75;;;13.88;;
30934;SDS011;51033;42.648;23.292;2022-11-06T02:04:24;23.95;;;14.38;;
30934;SDS011;51033;42.648;23.292;2022-11-06T02:06:52;28.48;;;15.77;;
30934;SDS011;51033;42.648;23.292;2022-11-06T02:09:18;25.77;;;14.27;;
30934;SDS011;51033;42.648;23.292;2022-11-06T02:11:51;26.13;;;15.20;;
30934;SDS011;51033;42.648;23.292;2022-11-06T02:14:39;23.75;;;13.77;;
30934;SDS011;51033;42.648;23.292;2022-11-06T02:17:19;25.98;;;13.38;;
30934;SDS011;51033;42.648;23.292;2022-11-06T02:28:20;16.73;;;7.80;;
30934;SDS011;51033;42.648;23.292;2022-11-06T02:30:50;9.93;;;6.30;;
30934;SDS011;51033;42.648;23.292;2022-11-06T02:33:17;9.77;;;6.68;;
30934;SDS011;51033;42.648;23.292;2022-11-06T02:35:52;11.73;;;6.20;;
30934;SDS011;51033;42.648;23.292;2022-11-06T02:38:31;12.98;;;7.20;;
30934;SDS011;51033;42.648;23.292;2022-11-06T02:41:03;14.88;;;8.27;;
30934;SDS011;51033;42.648;23.292;2022-11-06T02:43:39;14.43;;;6.55;;
30934;SDS011;51033;42.648;23.292;2022-11-06T02:46:11;8.70;;;5.35;;
30934;SDS011;51033;42.648;23.292;2022-11-06T02:49:05;12.60;;;5.03;;
30934;SDS011;51033;42.648;23.292;2022-11-06T02:51:33;7.35;;;4.60;;
30934;SDS011;51033;42.648;23.292;2022-11-06T02:54:04;5.03;;;3.95;;
30934;SDS011;51033;42.648;23.292;2022-11-06T02:56:35;8.70;;;4.38;;
30934;SDS011;51033;42.648;23.292;2022-11-06T02:59:04;6.55;;;3.80;;
30934;SDS011;51033;42.648;23.292;2022-11-06T03:01:41;6.40;;;3.53;;
30934;SDS011;51033;42.648;23.292;2022-11-06T03:04:15;7.60;;;4.15;;
30934;SDS011;51033;42.648;23.292;2022-11-06T03:06:45;7.85;;;3.33;;
30934;SDS011;51033;42.648;23.292;2022-11-06T03:09:17;6.70;;;3.35;;
30934;SDS011;51033;42.648;23.292;2022-11-06T03:11:46;6.60;;;3.28;;
30934;SDS011;51033;42.648;23.292;2022-11-06T03:14:28;12.68;;;3.40;;
30934;SDS011;51033;42.648;23.292;2022-11-06T03:17:22;7.70;;;3.60;;
30934;SDS011;51033;42.648;23.292;2022-11-06T03:25:34;7.32;;;3.35;;
30934;SDS011;51033;42.648;23.292;2022-11-06T03:28:29;7.05;;;2.78;;
30934;SDS011;51033;42.648;23.292;2022-11-06T03:30:59;5.90;;;3.13;;
30934;SDS011;51033;42.648;23.292;2022-11-06T03:33:34;8.35;;;4.00;;
30934;SDS011;51033;42.648;23.292;2022-11-06T03:36:05;10.85;;;5.43;;
30934;SDS011;51033;42.648;23.292;2022-11-06T03:38:43;9.32;;;5.57;;
30934;SDS011;51033;42.648;23.292;2022-11-06T03:41:16;11.50;;;5.93;;
30934;SDS011;51033;42.648;23.292;2022-11-06T03:43:48;9.35;;;5.10;;
30934;SDS011;51033;42.648;23.292;2022-11-06T03:46:17;12.60;;;5.97;;
30934;SDS011;51033;42.648;23.292;2022-11-06T03:48:50;16.02;;;6.80;;
30934;SDS011;51033;42.648;23.292;2022-11-06T03:51:25;9.85;;;5.22;;
30934;SDS011;51033;42.648;23.292;2022-11-06T03:54:01;14.18;;;6.25;;
30934;SDS011;51033;42.648;23.292;2022-11-06T03:56:36;9.40;;;6.30;;
30934;SDS011;51033;42.648;23.292;2022-11-06T03:59:06;17.55;;;8.38;;
30934;SDS011;51033;42.648;23.292;2022-11-06T04:01:34;11.13;;;7.47;;
30934;SDS011;51033;42.648;23.292;2022-11-06T04:06:34;10.38;;;7.50;;
30934;SDS011;51033;42.648;23.292;2022-11-06T04:09:04;11.43;;;6.88;;
30934;SDS011;51033;42.648;23.292;2022-11-06T04:11:50;16.13;;;8.48;;
30934;SDS011;51033;42.648;23.292;2022-11-06T04:14:36;11.57;;;9.35;;
30934;SDS011;51033;42.648;23.292;2022-11-06T04:17:06;15.43;;;7.72;;
30934;SDS011;51033;42.648;23.292;2022-11-06T04:19:34;12.40;;;8.07;;
30934;SDS011;51033;42.648;23.292;2022-11-06T04:24:34;17.27;;;8.13;;
30934;SDS011;51033;42.648;23.292;2022-11-06T04:40:39;12.57;;;6.88;;
30934;SDS011;51033;42.648;23.292;2022-11-06T04:45:55;10.73;;;6.63;;
30934;SDS011;51033;42.648;23.292;2022-11-06T04:48:24;10.80;;;6.78;;
30934;SDS011;51033;42.648;23.292;2022-11-06T04:50:50;12.05;;;5.90;;
30934;SDS011;51033;42.648;23.292;2022-11-06T04:53:19;16.20;;;6.72;;
30934;SDS011;51033;42.648;23.292;2022-11-06T04:55:51;9.23;;;6.50;;
30934;SDS011;51033;42.648;23.292;2022-11-06T04:58:20;9.57;;;6.57;;
30934;SDS011;51033;42.648;23.292;2022-11-06T05:00:47;10.45;;;7.13;;
30934;SDS011;51033;42.648;23.292;2022-11-06T05:03:14;10.48;;;6.65;;
30934;SDS011;51033;42.648;23.292;2022-11-06T05:05:40;11.52;;;6.80;;
30934;SDS011;51033;42.648;23.292;2022-11-06T05:08:08;13.15;;;6.93;;
30934;SDS011;51033;42.648;23.292;2022-11-06T05:10:38;11.90;;;6.20;;
30934;SDS011;51033;42.648;23.292;2022-11-06T05:13:03;14.00;;;5.95;;
30934;SDS011;51033;42.648;23.292;2022-11-06T05:15:28;10.55;;;6.40;;
30934;SDS011;51033;42.648;23.292;2022-11-06T05:17:55;6.90;;;5.20;;
30934;SDS011;51033;42.648;23.292;2022-11-06T05:20:21;13.18;;;7.18;;
30934;SDS011;51033;42.648;23.292;2022-11-06T05:22:47;14.65;;;6.50;;
30934;SDS011;51033;42.648;23.292;2022-11-06T05:25:38;13.77;;;6.32;;
30934;SDS011;51033;42.648;23.292;2022-11-06T05:28:04;11.20;;;5.97;;
30934;SDS011;51033;42.648;23.292;2022-11-06T05:30:31;11.90;;;7.65;;
30934;SDS011;51033;42.648;23.292;2022-11-06T05:32:58;11.13;;;6.53;;
30934;SDS011;51033;42.648;23.292;2022-11-06T05:35:24;12.85;;;6.95;;
30934;SDS011;51033;42.648;23.292;2022-11-06T05:37:49;13.20;;;7.05;;
30934;SDS011;51033;42.648;23.292;2022-11-06T05:40:15;12.73;;;6.70;;
30934;SDS011;51033;42.648;23.292;2022-11-06T05:42:40;10.98;;;6.60;;
30934;SDS011;51033;42.648;23.292;2022-11-06T05:45:07;15.80;;;7.95;;
30934;SDS011;51033;42.648;23.292;2022-11-06T05:47:33;10.63;;;7.13;;
30934;SDS011;51033;42.648;23.292;2022-11-06T05:49:59;13.35;;;6.97;;
30934;SDS011;51033;42.648;23.292;2022-11-06T05:52:24;12.32;;;7.70;;
30934;SDS011;51033;42.648;23.292;2022-11-06T05:54:50;11.48;;;8.27;;
30934;SDS011;51033;42.648;23.292;2022-11-06T05:57:15;11.02;;;7.28;;
30934;SDS011;51033;42.648;23.292;2022-11-06T05:59:41;12.30;;;7.28;;
30934;SDS011;51033;42.648;23.292;2022-11-06T06:02:06;12.52;;;7.53;;
30934;SDS011;51033;42.648;23.292;2022-11-06T06:04:32;12.38;;;7.95;;
30934;SDS011;51033;42.648;23.292;2022-11-06T06:06:57;10.27;;;7.20;;
30934;SDS011;51033;42.648;23.292;2022-11-06T06:09:23;11.77;;;6.90;;
30934;SDS011;51033;42.648;23.292;2022-11-06T06:11:52;12.80;;;8.63;;
30934;SDS011;51033;42.648;23.292;2022-11-06T06:14:18;11.80;;;7.78;;
30934;SDS011;51033;42.648;23.292;2022-11-06T06:16:45;12.10;;;8.50;;
30934;SDS011;51033;42.648;23.292;2022-11-06T06:19:10;12.13;;;8.00;;
30934;SDS011;51033;42.648;23.292;2022-11-06T06:21:36;13.80;;;8.98;;
30934;SDS011;51033;42.648;23.292;2022-11-06T06:24:02;14.68;;;8.85;;
30934;SDS011;51033;42.648;23.292;2022-11-06T06:26:28;11.95;;;8.30;;
30934;SDS011;51033;42.648;23.292;2022-11-06T06:28:54;16.05;;;8.75;;
30934;SDS011;51033;42.648;23.292;2022-11-06T06:31:19;14.32;;;8.23;;
30934;SDS011;51033;42.648;23.292;2022-11-06T06:33:45;14.05;;;8.07;;
30934;SDS011;51033;42.648;23.292;2022-11-06T06:36:10;18.10;;;9.88;;
30934;SDS011;51033;42.648;23.292;2022-11-06T06:38:35;21.17;;;10.35;;
30934;SDS011;51033;42.648;23.292;2022-11-06T06:41:01;17.20;;;9.18;;
30934;SDS011;51033;42.648;23.292;2022-11-06T06:43:28;19.65;;;10.77;;
30934;SDS011;51033;42.648;23.292;2022-11-06T06:45:55;14.02;;;8.88;;
30934;SDS011;51033;42.648;23.292;2022-11-06T06:48:22;13.40;;;9.80;;
30934;SDS011;51033;42.648;23.292;2022-11-06T06:50:47;19.80;;;9.55;;
30934;SDS011;51033;42.648;23.292;2022-11-06T06:53:13;14.63;;;8.30;;
30934;SDS011;51033;42.648;23.292;2022-11-06T06:55:38;16.70;;;9.27;;
30934;SDS011;51033;42.648;23.292;2022-11-06T06:58:04;15.52;;;9.60;;
30934;SDS011;51033;42.648;23.292;2022-11-06T07:00:30;25.02;;;10.73;;
30934;SDS011;51033;42.648;23.292;2022-11-06T07:02:55;17.38;;;10.88;;
30934;SDS011;51033;42.648;23.292;2022-11-06T07:05:21;21.23;;;11.25;;
30934;SDS011;51033;42.648;23.292;2022-11-06T07:07:46;18.60;;;10.68;;
30934;SDS011;51033;42.648;23.292;2022-11-06T07:10:12;16.75;;;11.23;;
30934;SDS011;51033;42.648;23.292;2022-11-06T07:12:37;16.92;;;10.20;;
30934;SDS011;51033;42.648;23.292;2022-11-06T07:15:03;18.98;;;11.02;;
30934;SDS011;51033;42.648;23.292;2022-11-06T07:17:28;21.20;;;11.57;;
30934;SDS011;51033;42.648;23.292;2022-11-06T07:19:54;16.80;;;10.88;;
30934;SDS011;51033;42.648;23.292;2022-11-06T07:22:19;22.35;;;10.98;;
30934;SDS011;51033;42.648;23.292;2022-11-06T07:24:44;17.63;;;10.45;;
30934;SDS011;51033;42.648;23.292;2022-11-06T07:27:10;13.98;;;10.05;;
30934;SDS011;51033;42.648;23.292;2022-11-06T07:29:35;19.77;;;12.65;;
30934;SDS011;51033;42.648;23.292;2022-11-06T07:32:00;15.32;;;11.05;;
30934;SDS011;51033;42.648;23.292;2022-11-06T07:34:26;19.77;;;10.30;;
30934;SDS011;51033;42.648;23.292;2022-11-06T07:36:51;16.15;;;10.85;;
30934;SDS011;51033;42.648;23.292;2022-11-06T07:39:17;17.80;;;10.70;;
30934;SDS011;51033;42.648;23.292;2022-11-06T07:41:42;16.73;;;9.48;;
30934;SDS011;51033;42.648;23.292;2022-11-06T07:44:07;17.60;;;10.75;;
30934;SDS011;51033;42.648;23.292;2022-11-06T07:46:33;14.27;;;9.82;;
30934;SDS011;51033;42.648;23.292;2022-11-06T07:48:58;20.67;;;11.10;;
30934;SDS011;51033;42.648;23.292;2022-11-06T07:51:24;19.73;;;10.15;;
30934;SDS011;51033;42.648;23.292;2022-11-06T07:53:49;16.30;;;10.65;;
30934;SDS011;51033;42.648;23.292;2022-11-06T07:56:14;26.38;;;10.80;;
30934;SDS011;51033;42.648;23.292;2022-11-06T07:58:40;19.65;;;10.73;;
30934;SDS011;51033;42.648;23.292;2022-11-06T08:01:05;18.58;;;10.05;;
30934;SDS011;51033;42.648;23.292;2022-11-06T08:03:39;18.73;;;10.60;;
30934;SDS011;51033;42.648;23.292;2022-11-06T08:06:05;22.25;;;12.32;;
30934;SDS011;51033;42.648;23.292;2022-11-06T08:08:30;21.20;;;11.57;;
30934;SDS011;51033;42.648;23.292;2022-11-06T08:11:06;20.90;;;12.18;;
30934;SDS011;51033;42.648;23.292;2022-11-06T08:13:33;22.92;;;12.80;;
30934;SDS011;51033;42.648;23.292;2022-11-06T08:16:05;19.95;;;10.98;;
30934;SDS011;51033;42.648;23.292;2022-11-06T08:18:32;16.63;;;11.40;;
30934;SDS011;51033;42.648;23.292;2022-11-06T08:20:58;23.90;;;12.30;;
30934;SDS011;51033;42.648;23.292;2022-11-06T08:23:23;22.58;;;12.38;;
30934;SDS011;51033;42.648;23.292;2022-11-06T08:25:51;22.25;;;11.35;;
30934;SDS011;51033;42.648;23.292;2022-11-06T08:28:19;26.60;;;13.05;;
30934;SDS011;51033;42.648;23.292;2022-11-06T08:30:45;19.40;;;12.63;;
30934;SDS011;51033;42.648;23.292;2022-11-06T08:33:10;24.90;;;13.27;;
30934;SDS011;51033;42.648;23.292;2022-11-06T08:35:36;17.40;;;11.00;;
30934;SDS011;51033;42.648;23.292;2022-11-06T08:38:02;19.85;;;12.38;;
30934;SDS011;51033;42.648;23.292;2022-11-06T08:40:27;22.77;;;13.15;;
30934;SDS011;51033;42.648;23.292;2022-11-06T08:42:57;21.23;;;12.75;;
30934;SDS011;51033;42.648;23.292;2022-11-06T08:45:26;22.55;;;13.23;;
30934;SDS011;51033;42.648;23.292;2022-11-06T08:47:52;22.90;;;13.57;;
30934;SDS011;51033;42.648;23.292;2022-11-06T08:50:18;24.95;;;13.75;;
30934;SDS011;51033;42.648;23.292;2022-11-06T08:52:43;24.10;;;13.75;;
30934;SDS011;51033;42.648;23.292;2022-11-06T08:55:08;25.00;;;14.57;;
30934;SDS011;51033;42.648;23.292;2022-11-06T08:57:34;28.38;;;15.73;;
30934;SDS011;51033;42.648;23.292;2022-11-06T08:59:59;26.13;;;15.50;;
30934;SDS011;51033;42.648;23.292;2022-11-06T09:02:24;53.42;;;23.70;;
30934;SDS011;51033;42.648;23.292;2022-11-06T09:04:50;24.30;;;15.02;;
30934;SDS011;51033;42.648;23.292;2022-11-06T09:07:16;52.45;;;24.95;;
30934;SDS011;51033;42.648;23.292;2022-11-06T09:09:42;49.35;;;26.75;;
30934;SDS011;51033;42.648;23.292;2022-11-06T09:12:07;161.70;;;69.43;;
30934;SDS011;51033;42.648;23.292;2022-11-06T09:14:33;53.67;;;27.70;;
30934;SDS011;51033;42.648;23.292;2022-11-06T09:16:59;66.85;;;33.95;;
30934;SDS011;51033;42.648;23.292;2022-11-06T09:19:25;24.55;;;14.45;;
30934;SDS011;51033;42.648;23.292;2022-11-06T09:21:50;32.35;;;16.95;;
30934;SDS011;51033;42.648;23.292;2022-11-06T09:24:16;74.78;;;35.58;;
30934;SDS011;51033;42.648;23.292;2022-11-06T09:26:41;38.63;;;21.38;;
30934;SDS011;51033;42.648;23.292;2022-11-06T09:29:06;31.40;;;17.92;;
30934;SDS011;51033;42.648;23.292;2022-11-06T09:31:32;24.63;;;17.35;;
30934;SDS011;51033;42.648;23.292;2022-11-06T09:33:57;28.20;;;16.17;;
30934;SDS011;51033;42.648;23.292;2022-11-06T09:36:22;35.17;;;17.30;;
30934;SDS011;51033;42.648;23.292;2022-11-06T09:38:48;21.33;;;13.88;;
30934;SDS011;51033;42.648;23.292;2022-11-06T09:44:09;24.27;;;14.35;;
30934;SDS011;51033;42.648;23.292;2022-11-06T09:46:43;21.02;;;13.13;;
30934;SDS011;51033;42.648;23.292;2022-11-06T09:52:11;31.92;;;18.25;;
30934;SDS011;51033;42.648;23.292;2022-11-06T09:54:55;21.98;;;14.10;;
30934;SDS011;51033;42.648;23.292;2022-11-06T10:00:03;20.17;;;13.13;;
30934;SDS011;51033;42.648;23.292;2022-11-06T10:02:33;19.10;;;13.38;;
30934;SDS011;51033;42.648;23.292;2022-11-06T10:07:46;17.45;;;11.23;;
30934;SDS011;51033;42.648;23.292;2022-11-06T10:10:17;16.92;;;11.18;;
30934;SDS011;51033;42.648;23.292;2022-11-06T10:13:05;17.38;;;10.85;;
30934;SDS011;51033;42.648;23.292;2022-11-06T10:18:13;21.83;;;10.63;;
30934;SDS011;51033;42.648;23.292;2022-11-06T10:20:51;15.57;;;9.60;;
30934;SDS011;51033;42.648;23.292;2022-11-06T10:34:19;12.50;;;8.27;;
30934;SDS011;51033;42.648;23.292;2022-11-06T10:36:53;10.90;;;7.93;;
30934;SDS011;51033;42.648;23.292;2022-11-06T10:39:28;12.82;;;8.27;;
30934;SDS011;51033;42.648;23.292;2022-11-06T10:41:57;12.88;;;7.40;;
30934;SDS011;51033;42.648;23.292;2022-11-06T10:44:29;12.90;;;7.53;;
30934;SDS011;51033;42.648;23.292;2022-11-06T10:47:05;15.02;;;7.35;;
30934;SDS011;51033;42.648;23.292;2022-11-06T10:49:48;13.60;;;7.63;;
30934;SDS011;51033;42.648;23.292;2022-11-06T11:00:12;13.65;;;8.30;;
30934;SDS011;51033;42.648;23.292;2022-11-06T11:02:46;14.00;;;8.93;;
30934;SDS011;51033;42.648;23.292;2022-11-06T11:05:16;13.43;;;8.95;;
30934;SDS011;51033;42.648;23.292;2022-11-06T11:07:43;13.95;;;8.73;;
30934;SDS011;51033;42.648;23.292;2022-11-06T11:12:51;11.68;;;7.97;;
30934;SDS011;51033;42.648;23.292;2022-11-06T11:15:19;14.82;;;8.63;;
30934;SDS011;51033;42.648;23.292;2022-11-06T11:20:37;7.90;;;5.78;;
30934;SDS011;51033;42.648;23.292;2022-11-06T11:25:45;8.30;;;5.50;;
30934;SDS011;51033;42.648;23.292;2022-11-06T11:28:34;9.98;;;5.45;;
30934;SDS011;51033;42.648;23.292;2022-11-06T11:33:37;7.18;;;5.35;;
30934;SDS011;51033;42.648;23.292;2022-11-06T11:36:05;6.32;;;5.25;;
30934;SDS011;51033;42.648;23.292;2022-11-06T11:38:33;8.18;;;6.18;;
30934;SDS011;51033;42.648;23.292;2022-11-06T11:41:08;8.65;;;6.03;;
30934;SDS011;51033;42.648;23.292;2022-11-06T11:44:06;8.43;;;5.55;;
30934;SDS011;51033;42.648;23.292;2022-11-06T11:46:49;7.00;;;5.75;;
30934;SDS011;51033;42.648;23.292;2022-11-06T11:49:33;7.30;;;5.72;;
30934;SDS011;51033;42.648;23.292;2022-11-06T11:52:05;9.40;;;5.57;;
30934;SDS011;51033;42.648;23.292;2022-11-06T11:54:36;7.25;;;5.78;;
30934;SDS011;51033;42.648;23.292;2022-11-06T11:57:03;8.02;;;5.55;;
30934;SDS011;51033;42.648;23.292;2022-11-06T12:02:30;7.97;;;5.70;;
30934;SDS011;51033;42.648;23.292;2022-11-06T12:05:10;11.75;;;8.13;;
30934;SDS011;51033;42.648;23.292;2022-11-06T12:07:42;12.70;;;8.27;;
30934;SDS011;51033;42.648;23.292;2022-11-06T12:13:12;12.50;;;9.25;;
30934;SDS011;51033;42.648;23.292;2022-11-06T12:18:34;12.07;;;9.35;;
30934;SDS011;51033;42.648;23.292;2022-11-06T12:23:33;16.90;;;10.48;;
30934;SDS011;51033;42.648;23.292;2022-11-06T12:26:04;17.08;;;11.77;;
30934;SDS011;51033;42.648;23.292;2022-11-06T12:28:36;25.77;;;15.18;;
30934;SDS011;51033;42.648;23.292;2022-11-06T12:34:02;19.90;;;10.07;;
30934;SDS011;51033;42.648;23.292;2022-11-06T12:36:34;16.30;;;10.10;;
30934;SDS011;51033;42.648;23.292;2022-11-06T12:39:11;13.70;;;8.25;;
30934;SDS011;51033;42.648;23.292;2022-11-06T12:41:44;11.13;;;7.97;;
30934;SDS011;51033;42.648;23.292;2022-11-06T12:44:13;14.60;;;10.68;;
30934;SDS011;51033;42.648;23.292;2022-11-06T13:02:34;19.33;;;11.05;;
30934;SDS011;51033;42.648;23.292;2022-11-06T13:05:29;20.27;;;12.57;;
30934;SDS011;51033;42.648;23.292;2022-11-06T13:08:04;11.60;;;7.90;;
30934;SDS011;51033;42.648;23.292;2022-11-06T13:11:00;16.95;;;9.68;;
30934;SDS011;51033;42.648;23.292;2022-11-06T13:22:01;11.18;;;7.97;;
30934;SDS011;51033;42.648;23.292;2022-11-06T13:25:03;12.15;;;8.02;;
30934;SDS011;51033;42.648;23.292;2022-11-06T13:27:51;13.75;;;7.68;;
30934;SDS011;51033;42.648;23.292;2022-11-06T13:30:26;9.00;;;7.20;;
30934;SDS011;51033;42.648;23.292;2022-11-06T13:35:35;15.50;;;8.77;;
30934;SDS011;51033;42.648;23.292;2022-11-06T13:38:07;13.02;;;9.15;;
30934;SDS011;51033;42.648;23.292;2022-11-06T13:40:40;13.20;;;7.88;;
30934;SDS011;51033;42.648;23.292;2022-11-06T14:02:54;9.63;;;5.88;;
30934;SDS011;51033;42.648;23.292;2022-11-06T14:11:14;14.13;;;7.05;;
30934;SDS011;51033;42.648;23.292;2022-11-06T14:13:54;9.32;;;5.90;;
30934;SDS011;51033;42.648;23.292;2022-11-06T14:16:35;13.98;;;8.50;;
30934;SDS011;51033;42.648;23.292;2022-11-06T14:19:04;10.63;;;6.68;;
30934;SDS011;51033;42.648;23.292;2022-11-06T14:27:04;19.88;;;11.90;;
30934;SDS011;51033;42.648;23.292;2022-11-06T14:32:04;9.32;;;7.15;;
30934;SDS011;51033;42.648;23.292;2022-11-06T14:34:37;12.20;;;6.65;;
30934;SDS011;51033;42.648;23.292;2022-11-06T14:44:55;10.88;;;6.00;;
30934;SDS011;51033;42.648;23.292;2022-11-06T14:47:25;8.27;;;4.47;;
30934;SDS011;51033;42.648;23.292;2022-11-06T14:49:53;7.28;;;5.05;;
30934;SDS011;51033;42.648;23.292;2022-11-06T14:52:20;7.63;;;5.78;;
30934;SDS011;51033;42.648;23.292;2022-11-06T14:54:50;5.38;;;3.80;;
30934;SDS011;51033;42.648;23.292;2022-11-06T14:57:40;6.38;;;4.53;;
30934;SDS011;51033;42.648;23.292;2022-11-06T15:00:13;8.32;;;4.57;;
30934;SDS011;51033;42.648;23.292;2022-11-06T15:02:58;8.60;;;5.38;;
30934;SDS011;51033;42.648;23.292;2022-11-06T15:05:24;7.65;;;5.25;;
30934;SDS011;51033;42.648;23.292;2022-11-06T15:07:52;7.80;;;5.65;;
30934;SDS011;51033;42.648;23.292;2022-11-06T15:13:14;10.90;;;7.55;;
30934;SDS011;51033;42.648;23.292;2022-11-06T15:15:48;12.77;;;7.30;;
30934;SDS011;51033;42.648;23.292;2022-11-06T15:18:17;11.52;;;7.07;;
30934;SDS011;51033;42.648;23.292;2022-11-06T15:20:56;9.93;;;5.40;;
30934;SDS011;51033;42.648;23.292;2022-11-06T15:23:26;9.32;;;5.90;;
30934;SDS011;51033;42.648;23.292;2022-11-06T15:26:02;11.43;;;7.40;;
30934;SDS011;51033;42.648;23.292;2022-11-06T15:28:39;18.35;;;10.75;;
30934;SDS011;51033;42.648;23.292;2022-11-06T15:31:13;19.35;;;9.95;;
30934;SDS011;51033;42.648;23.292;2022-11-06T15:36:22;9.88;;;7.32;;
30934;SDS011;51033;42.648;23.292;2022-11-06T15:38:48;13.07;;;8.25;;
30934;SDS011;51033;42.648;23.292;2022-11-06T15:41:15;9.18;;;6.07;;
30934;SDS011;51033;42.648;23.292;2022-11-06T15:43:45;10.25;;;5.30;;
30934;SDS011;51033;42.648;23.292;2022-11-06T15:48:47;6.97;;;5.05;;
30934;SDS011;51033;42.648;23.292;2022-11-06T15:51:30;7.78;;;3.72;;
30934;SDS011;51033;42.648;23.292;2022-11-06T15:53:55;7.85;;;3.83;;
30934;SDS011;51033;42.648;23.292;2022-11-06T15:56:25;6.72;;;4.05;;
30934;SDS011;51033;42.648;23.292;2022-11-06T15:59:12;6.13;;;4.15;;
30934;SDS011;51033;42.648;23.292;2022-11-06T16:01:39;4.95;;;3.70;;
30934;SDS011;51033;42.648;23.292;2022-11-06T16:04:13;5.32;;;3.53;;
30934;SDS011;51033;42.648;23.292;2022-11-06T16:06:42;14.10;;;7.18;;
30934;SDS011;51033;42.648;23.292;2022-11-06T16:09:15;9.20;;;5.03;;
30934;SDS011;51033;42.648;23.292;2022-11-06T16:11:43;9.20;;;4.97;;
30934;SDS011;51033;42.648;23.292;2022-11-06T16:14:11;11.48;;;5.93;;
30934;SDS011;51033;42.648;23.292;2022-11-06T16:16:45;8.15;;;5.35;;
30934;SDS011;51033;42.648;23.292;2022-11-06T16:21:56;12.40;;;6.05;;
30934;SDS011;51033;42.648;23.292;2022-11-06T16:24:38;7.07;;;5.50;;
30934;SDS011;51033;42.648;23.292;2022-11-06T16:27:07;9.10;;;5.38;;
30934;SDS011;51033;42.648;23.292;2022-11-06T16:29:34;10.45;;;6.25;;
30934;SDS011;51033;42.648;23.292;2022-11-06T16:32:04;11.13;;;7.60;;
30934;SDS011;51033;42.648;23.292;2022-11-06T16:36:59;11.90;;;7.60;;
30934;SDS011;51033;42.648;23.292;2022-11-06T16:42:34;13.55;;;6.88;;
30934;SDS011;51033;42.648;23.292;2022-11-06T16:45:21;12.88;;;7.18;;
30934;SDS011;51033;42.648;23.292;2022-11-06T16:48:22;8.30;;;6.35;;
30934;SDS011;51033;42.648;23.292;2022-11-06T16:50:50;10.57;;;7.00;;
30934;SDS011;51033;42.648;23.292;2022-11-06T16:53:25;10.93;;;7.55;;
30934;SDS011;51033;42.648;23.292;2022-11-06T16:56:03;11.38;;;7.35;;
30934;SDS011;51033;42.648;23.292;2022-11-06T16:58:34;11.60;;;7.97;;
30934;SDS011;51033;42.648;23.292;2022-11-06T17:01:26;8.90;;;6.93;;
30934;SDS011;51033;42.648;23.292;2022-11-06T17:04:00;9.48;;;6.63;;
30934;SDS011;51033;42.648;23.292;2022-11-06T17:09:22;14.50;;;9.50;;
30934;SDS011;51033;42.648;23.292;2022-11-06T17:11:56;20.17;;;10.27;;
30934;SDS011;51033;42.648;23.292;2022-11-06T17:14:22;11.48;;;8.57;;
30934;SDS011;51033;42.648;23.292;2022-11-06T17:16:49;17.77;;;12.05;;
30934;SDS011;51033;42.648;23.292;2022-11-06T17:19:17;19.70;;;12.20;;
30934;SDS011;51033;42.648;23.292;2022-11-06T17:21:43;14.02;;;9.15;;
30934;SDS011;51033;42.648;23.292;2022-11-06T17:24:08;17.38;;;10.10;;
30934;SDS011;51033;42.648;23.292;2022-11-06T17:26:34;15.43;;;9.25;;
30934;SDS011;51033;42.648;23.292;2022-11-06T17:29:04;11.45;;;8.75;;
30934;SDS011;51033;42.648;23.292;2022-11-06T17:31:30;18.67;;;12.88;;
30934;SDS011;51033;42.648;23.292;2022-11-06T17:33:55;12.63;;;9.85;;
30934;SDS011;51033;42.648;23.292;2022-11-06T17:38:46;16.38;;;11.15;;
30934;SDS011;51033;42.648;23.292;2022-11-06T17:41:12;18.48;;;11.00;;